Airfield :
LOGIN :

Register | Disclaimer

   EN    FR    IT 

 










Legend :    VFR   Marginal VFR   IFR   Intensive IFR   Very Intensive IFR
Visi :
Ceiling :
>= 8 km
>= 3000ft
5 to 8 km
1000 to 3000 ft
1500m to 5 km
500 to 1000 ft
800 to 1500m
200 to 500 ft
< 800m
< 200 ft
Symbols :   Thunderstorms  Fog  Heavy snow  Heavy precipitations  Wind > 20 kt
SIGMETs :     Misc.  Thunderstorms  Icing  Turbulence  Mountain Waves  Volcanic Ashes







- Airport Elevation : 1682 ft
- IATA code : VIT


LEVT - Vitoria Gasteiz

CURRENT METAR :
  • 280030Z 02004KT 360V060 9999 FEW008 BKN015 19/16 Q1019

EXPIRED METARs :
  • 280000Z 01006KT 330V040 9999 FEW010 BKN017 19/16 Q1019
  • 272330Z 04006KT 010V070 9999 FEW010 BKN018 19/17 Q1019
  • 272300Z 04007KT 9999 FEW015 BKN025 19/16 Q1019
  • 272230Z 01005KT 9999 FEW010 BKN019 20/16 Q1019
  • 272200Z 04004KT 010V080 9999 BKN018 20/16 Q1019
  • 272130Z 02008KT 9999 BKN018 20/16 Q1019

TAF TAF LEVT
Valid from the 28 at 00:00 until the 29 at 00:00 UTC


272300Z 2800/2824 VRB04KT 9999 SCT010 SCT020 TX31/2815Z TN13/2805Z
TEMPO 2800/2808 BKN010
PROB30
TEMPO 2800/2806 0800 BCFG BKN002
TEMPO 2812/2818 02011KT
No reported NOTAMs for that airfield.



MET'MAP, your aeronautical weather chart ! - Copyright ORBIFLY December 2007 - Disclaimer

ORBIFLY MET'MAP TEAM :

Programming & Development : Alexandra Zaïnal
Concept & Development : Baudouin d'Aumeries
Co-Development & Prog : Marc-Olivier Méhu
Technical & hardware support : Manuel Goepfert

Contact : metmap@orbifly.com




SOURCES & CREDITS :

   NOAA